sensor_id;sensor_type;location;lat;lon;timestamp;P1;durP1;ratioP1;P2;durP2;ratioP2
49826;SDS011;35715;51.570;6.036;2022-08-20T00:00:39;12.98;;;10.93;;
49826;SDS011;35715;51.570;6.036;2022-08-20T00:03:09;11.05;;;9.82;;
49826;SDS011;35715;51.570;6.036;2022-08-20T00:05:50;13.55;;;10.55;;
49826;SDS011;35715;51.570;6.036;2022-08-20T00:08:20;12.52;;;11.32;;
49826;SDS011;35715;51.570;6.036;2022-08-20T00:10:47;8.88;;;8.07;;
49826;SDS011;35715;51.570;6.036;2022-08-20T00:13:15;9.60;;;8.70;;
49826;SDS011;35715;51.570;6.036;2022-08-20T00:15:44;11.65;;;9.07;;
49826;SDS011;35715;51.570;6.036;2022-08-20T00:18:14;12.95;;;10.52;;
49826;SDS011;35715;51.570;6.036;2022-08-20T00:23:14;9.75;;;8.85;;
49826;SDS011;35715;51.570;6.036;2022-08-20T00:25:41;17.35;;;9.95;;
49826;SDS011;35715;51.570;6.036;2022-08-20T00:28:10;9.63;;;8.73;;
49826;SDS011;35715;51.570;6.036;2022-08-20T00:30:37;12.07;;;9.88;;
49826;SDS011;35715;51.570;6.036;2022-08-20T00:33:05;9.63;;;8.73;;
49826;SDS011;35715;51.570;6.036;2022-08-20T00:35:36;10.98;;;8.93;;
49826;SDS011;35715;51.570;6.036;2022-08-20T00:40:38;8.73;;;7.85;;
49826;SDS011;35715;51.570;6.036;2022-08-20T00:43:22;10.60;;;8.10;;
49826;SDS011;35715;51.570;6.036;2022-08-20T00:45:50;7.45;;;6.65;;
49826;SDS011;35715;51.570;6.036;2022-08-20T00:48:23;11.10;;;7.53;;
49826;SDS011;35715;51.570;6.036;2022-08-20T00:50:49;9.23;;;6.80;;
49826;SDS011;35715;51.570;6.036;2022-08-20T00:53:15;7.93;;;7.13;;
49826;SDS011;35715;51.570;6.036;2022-08-20T00:55:44;7.47;;;6.75;;
49826;SDS011;35715;51.570;6.036;2022-08-20T00:58:11;8.23;;;7.43;;
49826;SDS011;35715;51.570;6.036;2022-08-20T01:00:38;7.93;;;7.00;;
49826;SDS011;35715;51.570;6.036;2022-08-20T01:03:07;9.35;;;6.93;;
49826;SDS011;35715;51.570;6.036;2022-08-20T01:05:36;7.68;;;6.53;;
49826;SDS011;35715;51.570;6.036;2022-08-20T01:08:08;8.63;;;7.82;;
49826;SDS011;35715;51.570;6.036;2022-08-20T01:10:35;10.48;;;7.25;;
49826;SDS011;35715;51.570;6.036;2022-08-20T01:13:07;7.50;;;6.80;;
49826;SDS011;35715;51.570;6.036;2022-08-20T01:15:36;7.22;;;6.53;;
49826;SDS011;35715;51.570;6.036;2022-08-20T01:18:06;6.75;;;6.15;;
49826;SDS011;35715;51.570;6.036;2022-08-20T01:20:37;6.55;;;5.88;;
49826;SDS011;35715;51.570;6.036;2022-08-20T01:23:23;6.65;;;6.05;;
49826;SDS011;35715;51.570;6.036;2022-08-20T01:31:23;7.57;;;5.78;;
49826;SDS011;35715;51.570;6.036;2022-08-20T01:33:52;7.95;;;7.05;;
49826;SDS011;35715;51.570;6.036;2022-08-20T01:36:23;9.00;;;6.55;;
49826;SDS011;35715;51.570;6.036;2022-08-20T01:38:51;6.63;;;6.13;;
49826;SDS011;35715;51.570;6.036;2022-08-20T01:44:29;6.80;;;6.18;;
49826;SDS011;35715;51.570;6.036;2022-08-20T01:47:12;9.57;;;6.47;;
49826;SDS011;35715;51.570;6.036;2022-08-20T01:49:45;7.43;;;6.35;;
49826;SDS011;35715;51.570;6.036;2022-08-20T01:52:21;7.97;;;7.25;;
49826;SDS011;35715;51.570;6.036;2022-08-20T01:54:52;6.88;;;6.28;;
49826;SDS011;35715;51.570;6.036;2022-08-20T01:57:20;7.10;;;6.45;;
49826;SDS011;35715;51.570;6.036;2022-08-20T01:59:49;9.93;;;6.82;;
49826;SDS011;35715;51.570;6.036;2022-08-20T02:02:15;7.57;;;6.60;;
49826;SDS011;35715;51.570;6.036;2022-08-20T02:04:41;9.20;;;7.82;;
49826;SDS011;35715;51.570;6.036;2022-08-20T02:07:15;8.45;;;7.57;;
49826;SDS011;35715;51.570;6.036;2022-08-20T02:09:44;7.60;;;6.90;;
49826;SDS011;35715;51.570;6.036;2022-08-20T02:12:10;10.50;;;7.30;;
49826;SDS011;35715;51.570;6.036;2022-08-20T02:14:39;7.22;;;6.57;;
49826;SDS011;35715;51.570;6.036;2022-08-20T02:17:20;8.68;;;6.22;;
49826;SDS011;35715;51.570;6.036;2022-08-20T02:19:54;9.02;;;8.18;;
49826;SDS011;35715;51.570;6.036;2022-08-20T02:25:08;11.50;;;7.10;;
49826;SDS011;35715;51.570;6.036;2022-08-20T02:27:46;7.57;;;6.88;;
49826;SDS011;35715;51.570;6.036;2022-08-20T02:30:27;8.32;;;7.60;;
49826;SDS011;35715;51.570;6.036;2022-08-20T02:32:57;7.47;;;6.68;;
49826;SDS011;35715;51.570;6.036;2022-08-20T02:35:24;7.53;;;6.70;;
49826;SDS011;35715;51.570;6.036;2022-08-20T02:37:50;10.80;;;6.80;;
49826;SDS011;35715;51.570;6.036;2022-08-20T02:40:17;9.30;;;7.20;;
49826;SDS011;35715;51.570;6.036;2022-08-20T02:42:43;7.95;;;7.20;;
49826;SDS011;35715;51.570;6.036;2022-08-20T02:45:10;8.32;;;6.70;;
49826;SDS011;35715;51.570;6.036;2022-08-20T02:47:39;9.55;;;7.78;;
49826;SDS011;35715;51.570;6.036;2022-08-20T02:50:06;8.35;;;7.65;;
49826;SDS011;35715;51.570;6.036;2022-08-20T02:52:35;7.90;;;7.20;;
49826;SDS011;35715;51.570;6.036;2022-08-20T02:55:00;10.50;;;8.88;;
49826;SDS011;35715;51.570;6.036;2022-08-20T02:57:25;9.30;;;7.82;;
49826;SDS011;35715;51.570;6.036;2022-08-20T02:59:52;7.57;;;6.85;;
49826;SDS011;35715;51.570;6.036;2022-08-20T03:02:17;8.45;;;7.60;;
49826;SDS011;35715;51.570;6.036;2022-08-20T03:04:44;15.65;;;8.60;;
49826;SDS011;35715;51.570;6.036;2022-08-20T03:07:12;7.78;;;6.88;;
49826;SDS011;35715;51.570;6.036;2022-08-20T03:09:38;12.00;;;8.90;;
49826;SDS011;35715;51.570;6.036;2022-08-20T03:12:05;6.55;;;5.95;;
49826;SDS011;35715;51.570;6.036;2022-08-20T03:14:31;7.65;;;6.95;;
49826;SDS011;35715;51.570;6.036;2022-08-20T03:17:05;6.32;;;5.80;;
49826;SDS011;35715;51.570;6.036;2022-08-20T03:19:31;8.10;;;7.30;;
49826;SDS011;35715;51.570;6.036;2022-08-20T03:21:56;8.40;;;6.32;;
49826;SDS011;35715;51.570;6.036;2022-08-20T03:24:22;5.80;;;5.30;;
49826;SDS011;35715;51.570;6.036;2022-08-20T03:26:48;5.20;;;4.70;;
49826;SDS011;35715;51.570;6.036;2022-08-20T03:29:13;7.80;;;5.75;;
49826;SDS011;35715;51.570;6.036;2022-08-20T03:31:39;6.80;;;6.10;;
49826;SDS011;35715;51.570;6.036;2022-08-20T03:34:05;10.00;;;7.07;;
49826;SDS011;35715;51.570;6.036;2022-08-20T03:36:32;8.35;;;7.65;;
49826;SDS011;35715;51.570;6.036;2022-08-20T03:38:58;9.20;;;8.38;;
49826;SDS011;35715;51.570;6.036;2022-08-20T03:41:26;8.03;;;6.87;;
49826;SDS011;35715;51.570;6.036;2022-08-20T03:43:52;7.68;;;7.07;;
49826;SDS011;35715;51.570;6.036;2022-08-20T03:46:19;7.55;;;6.75;;
49826;SDS011;35715;51.570;6.036;2022-08-20T03:48:44;6.53;;;5.97;;
49826;SDS011;35715;51.570;6.036;2022-08-20T03:51:09;9.55;;;7.25;;
49826;SDS011;35715;51.570;6.036;2022-08-20T03:53:35;9.90;;;8.75;;
49826;SDS011;35715;51.570;6.036;2022-08-20T03:56:02;10.77;;;7.57;;
49826;SDS011;35715;51.570;6.036;2022-08-20T03:58:30;7.97;;;7.28;;
49826;SDS011;35715;51.570;6.036;2022-08-20T04:00:57;7.82;;;7.10;;
49826;SDS011;35715;51.570;6.036;2022-08-20T04:03:23;8.60;;;7.90;;
49826;SDS011;35715;51.570;6.036;2022-08-20T04:05:49;9.98;;;9.15;;
49826;SDS011;35715;51.570;6.036;2022-08-20T04:10:51;10.70;;;9.38;;
49826;SDS011;35715;51.570;6.036;2022-08-20T04:13:18;11.05;;;10.05;;
49826;SDS011;35715;51.570;6.036;2022-08-20T04:15:44;12.57;;;10.05;;
49826;SDS011;35715;51.570;6.036;2022-08-20T04:20:44;12.05;;;10.45;;
49826;SDS011;35715;51.570;6.036;2022-08-20T04:23:10;12.35;;;11.10;;
49826;SDS011;35715;51.570;6.036;2022-08-20T04:25:36;12.55;;;11.00;;
49826;SDS011;35715;51.570;6.036;2022-08-20T04:28:06;13.07;;;10.80;;
49826;SDS011;35715;51.570;6.036;2022-08-20T04:33:00;13.35;;;12.10;;
49826;SDS011;35715;51.570;6.036;2022-08-20T04:35:25;11.98;;;10.95;;
49826;SDS011;35715;51.570;6.036;2022-08-20T04:38:05;12.90;;;11.70;;
49826;SDS011;35715;51.570;6.036;2022-08-20T04:40:33;13.73;;;12.35;;
49826;SDS011;35715;51.570;6.036;2022-08-20T04:43:28;11.88;;;10.65;;
49826;SDS011;35715;51.570;6.036;2022-08-20T04:45:56;14.25;;;12.20;;
49826;SDS011;35715;51.570;6.036;2022-08-20T04:51:09;14.07;;;12.75;;
49826;SDS011;35715;51.570;6.036;2022-08-20T04:53:39;14.80;;;13.32;;
49826;SDS011;35715;51.570;6.036;2022-08-20T04:56:05;18.00;;;16.05;;
49826;SDS011;35715;51.570;6.036;2022-08-20T04:58:38;16.50;;;14.82;;
49826;SDS011;35715;51.570;6.036;2022-08-20T05:01:05;18.50;;;16.05;;
49826;SDS011;35715;51.570;6.036;2022-08-20T05:03:33;20.63;;;17.52;;
49826;SDS011;35715;51.570;6.036;2022-08-20T05:06:00;20.80;;;17.48;;
49826;SDS011;35715;51.570;6.036;2022-08-20T05:08:26;19.52;;;17.10;;
49826;SDS011;35715;51.570;6.036;2022-08-20T05:10:52;19.13;;;16.77;;
49826;SDS011;35715;51.570;6.036;2022-08-20T05:13:18;17.75;;;15.98;;
49826;SDS011;35715;51.570;6.036;2022-08-20T05:15:44;19.55;;;17.55;;
49826;SDS011;35715;51.570;6.036;2022-08-20T05:18:15;21.52;;;17.65;;
49826;SDS011;35715;51.570;6.036;2022-08-20T05:20:43;19.23;;;17.40;;
49826;SDS011;35715;51.570;6.036;2022-08-20T05:23:12;22.83;;;18.75;;
49826;SDS011;35715;51.570;6.036;2022-08-20T05:25:40;21.65;;;19.45;;
49826;SDS011;35715;51.570;6.036;2022-08-20T05:28:09;25.13;;;18.80;;
49826;SDS011;35715;51.570;6.036;2022-08-20T05:30:41;28.77;;;23.40;;
49826;SDS011;35715;51.570;6.036;2022-08-20T05:33:09;32.13;;;23.20;;
49826;SDS011;35715;51.570;6.036;2022-08-20T05:35:38;28.95;;;24.77;;
49826;SDS011;35715;51.570;6.036;2022-08-20T05:38:08;28.70;;;25.33;;
49826;SDS011;35715;51.570;6.036;2022-08-20T05:40:37;31.75;;;26.98;;
49826;SDS011;35715;51.570;6.036;2022-08-20T05:43:04;27.55;;;24.50;;
49826;SDS011;35715;51.570;6.036;2022-08-20T05:45:36;37.58;;;28.65;;
49826;SDS011;35715;51.570;6.036;2022-08-20T05:48:26;32.03;;;25.92;;
49826;SDS011;35715;51.570;6.036;2022-08-20T05:50:53;31.63;;;27.10;;
49826;SDS011;35715;51.570;6.036;2022-08-20T05:53:19;30.35;;;27.15;;
49826;SDS011;35715;51.570;6.036;2022-08-20T05:55:46;32.20;;;27.92;;
49826;SDS011;35715;51.570;6.036;2022-08-20T05:58:16;37.45;;;29.75;;
49826;SDS011;35715;51.570;6.036;2022-08-20T06:00:50;32.63;;;27.33;;
49826;SDS011;35715;51.570;6.036;2022-08-20T06:03:16;36.38;;;27.60;;
49826;SDS011;35715;51.570;6.036;2022-08-20T06:06:00;39.33;;;30.33;;
49826;SDS011;35715;51.570;6.036;2022-08-20T06:08:26;36.08;;;29.38;;
49826;SDS011;35715;51.570;6.036;2022-08-20T06:10:51;37.92;;;29.02;;
49826;SDS011;35715;51.570;6.036;2022-08-20T06:13:17;34.85;;;30.52;;
49826;SDS011;35715;51.570;6.036;2022-08-20T06:15:43;32.60;;;29.05;;
49826;SDS011;35715;51.570;6.036;2022-08-20T06:20:38;36.17;;;28.55;;
49826;SDS011;35715;51.570;6.036;2022-08-20T06:23:05;45.75;;;29.08;;
49826;SDS011;35715;51.570;6.036;2022-08-20T06:25:31;36.92;;;29.52;;
49826;SDS011;35715;51.570;6.036;2022-08-20T06:28:00;32.60;;;27.38;;
49826;SDS011;35715;51.570;6.036;2022-08-20T06:30:27;37.17;;;30.15;;
49826;SDS011;35715;51.570;6.036;2022-08-20T06:32:52;37.33;;;29.38;;
49826;SDS011;35715;51.570;6.036;2022-08-20T06:35:18;37.65;;;29.13;;
49826;SDS011;35715;51.570;6.036;2022-08-20T06:37:43;34.47;;;30.63;;
49826;SDS011;35715;51.570;6.036;2022-08-20T06:40:10;32.30;;;28.88;;
49826;SDS011;35715;51.570;6.036;2022-08-20T06:42:39;43.65;;;31.13;;
49826;SDS011;35715;51.570;6.036;2022-08-20T06:45:07;39.38;;;29.77;;
49826;SDS011;35715;51.570;6.036;2022-08-20T06:47:41;41.80;;;33.33;;
49826;SDS011;35715;51.570;6.036;2022-08-20T06:50:09;42.55;;;33.55;;
49826;SDS011;35715;51.570;6.036;2022-08-20T06:52:39;51.92;;;36.58;;
49826;SDS011;35715;51.570;6.036;2022-08-20T06:55:05;39.53;;;33.15;;
49826;SDS011;35715;51.570;6.036;2022-08-20T06:57:34;44.33;;;33.08;;
49826;SDS011;35715;51.570;6.036;2022-08-20T07:00:01;38.78;;;33.38;;
49826;SDS011;35715;51.570;6.036;2022-08-20T07:02:27;40.05;;;33.30;;
49826;SDS011;35715;51.570;6.036;2022-08-20T07:04:53;39.00;;;34.50;;
49826;SDS011;35715;51.570;6.036;2022-08-20T07:07:21;51.85;;;38.72;;
49826;SDS011;35715;51.570;6.036;2022-08-20T07:09:48;42.83;;;38.28;;
49826;SDS011;35715;51.570;6.036;2022-08-20T07:12:13;40.38;;;36.10;;
49826;SDS011;35715;51.570;6.036;2022-08-20T07:14:39;49.28;;;36.55;;
49826;SDS011;35715;51.570;6.036;2022-08-20T07:17:04;38.45;;;33.03;;
49826;SDS011;35715;51.570;6.036;2022-08-20T07:19:31;44.47;;;34.78;;
49826;SDS011;35715;51.570;6.036;2022-08-20T07:21:56;40.97;;;35.17;;
49826;SDS011;35715;51.570;6.036;2022-08-20T07:24:22;40.55;;;36.05;;
49826;SDS011;35715;51.570;6.036;2022-08-20T07:26:49;37.80;;;32.80;;
49826;SDS011;35715;51.570;6.036;2022-08-20T07:29:16;37.67;;;32.53;;
49826;SDS011;35715;51.570;6.036;2022-08-20T07:31:42;46.65;;;39.75;;
49826;SDS011;35715;51.570;6.036;2022-08-20T07:34:27;42.30;;;37.92;;
49826;SDS011;35715;51.570;6.036;2022-08-20T07:39:26;48.35;;;39.65;;
49826;SDS011;35715;51.570;6.036;2022-08-20T07:41:52;42.20;;;37.75;;
49826;SDS011;35715;51.570;6.036;2022-08-20T07:44:27;42.63;;;38.00;;
49826;SDS011;35715;51.570;6.036;2022-08-20T07:46:54;40.25;;;36.17;;
49826;SDS011;35715;51.570;6.036;2022-08-20T07:49:22;38.97;;;34.80;;
49826;SDS011;35715;51.570;6.036;2022-08-20T07:51:47;36.33;;;32.05;;
49826;SDS011;35715;51.570;6.036;2022-08-20T07:54:12;38.47;;;34.58;;
49826;SDS011;35715;51.570;6.036;2022-08-20T07:56:38;41.08;;;32.03;;
49826;SDS011;35715;51.570;6.036;2022-08-20T07:59:03;37.38;;;31.23;;
49826;SDS011;35715;51.570;6.036;2022-08-20T08:01:29;38.63;;;34.65;;
49826;SDS011;35715;51.570;6.036;2022-08-20T08:03:56;44.20;;;35.42;;
49826;SDS011;35715;51.570;6.036;2022-08-20T08:06:30;40.95;;;34.47;;
49826;SDS011;35715;51.570;6.036;2022-08-20T08:08:56;50.90;;;37.17;;
49826;SDS011;35715;51.570;6.036;2022-08-20T08:11:25;39.72;;;33.90;;
49826;SDS011;35715;51.570;6.036;2022-08-20T08:13:51;45.45;;;35.10;;
49826;SDS011;35715;51.570;6.036;2022-08-20T08:16:17;42.72;;;32.63;;
49826;SDS011;35715;51.570;6.036;2022-08-20T08:18:44;41.75;;;35.00;;
49826;SDS011;35715;51.570;6.036;2022-08-20T08:21:13;45.17;;;37.65;;
49826;SDS011;35715;51.570;6.036;2022-08-20T08:23:40;42.13;;;34.20;;
49826;SDS011;35715;51.570;6.036;2022-08-20T08:26:13;47.88;;;35.25;;
49826;SDS011;35715;51.570;6.036;2022-08-20T08:28:39;50.63;;;38.53;;
49826;SDS011;35715;51.570;6.036;2022-08-20T08:31:07;44.15;;;36.13;;
49826;SDS011;35715;51.570;6.036;2022-08-20T08:33:33;49.50;;;34.53;;
49826;SDS011;35715;51.570;6.036;2022-08-20T08:36:13;49.88;;;35.20;;
49826;SDS011;35715;51.570;6.036;2022-08-20T08:38:40;53.40;;;35.60;;
49826;SDS011;35715;51.570;6.036;2022-08-20T08:44:01;44.75;;;36.55;;
49826;SDS011;35715;51.570;6.036;2022-08-20T08:46:31;39.45;;;33.70;;
49826;SDS011;35715;51.570;6.036;2022-08-20T08:49:04;46.97;;;32.20;;
49826;SDS011;35715;51.570;6.036;2022-08-20T08:51:37;41.72;;;31.48;;
49826;SDS011;35715;51.570;6.036;2022-08-20T08:54:07;36.03;;;31.30;;
49826;SDS011;35715;51.570;6.036;2022-08-20T08:56:41;40.22;;;29.60;;
49826;SDS011;35715;51.570;6.036;2022-08-20T08:59:07;35.92;;;31.05;;
49826;SDS011;35715;51.570;6.036;2022-08-20T09:01:34;38.95;;;29.60;;
49826;SDS011;35715;51.570;6.036;2022-08-20T09:04:06;37.10;;;30.55;;
49826;SDS011;35715;51.570;6.036;2022-08-20T09:06:34;36.25;;;28.95;;
49826;SDS011;35715;51.570;6.036;2022-08-20T09:09:01;34.05;;;28.23;;
49826;SDS011;35715;51.570;6.036;2022-08-20T09:11:29;33.70;;;26.95;;
49826;SDS011;35715;51.570;6.036;2022-08-20T09:13:55;39.75;;;28.00;;
49826;SDS011;35715;51.570;6.036;2022-08-20T09:16:22;27.60;;;24.73;;
49826;SDS011;35715;51.570;6.036;2022-08-20T09:18:49;25.65;;;22.83;;
49826;SDS011;35715;51.570;6.036;2022-08-20T09:21:15;25.77;;;21.90;;
49826;SDS011;35715;51.570;6.036;2022-08-20T09:23:40;26.85;;;22.48;;
49826;SDS011;35715;51.570;6.036;2022-08-20T09:26:06;25.05;;;22.27;;
49826;SDS011;35715;51.570;6.036;2022-08-20T09:28:32;22.98;;;19.45;;
49826;SDS011;35715;51.570;6.036;2022-08-20T09:30:57;21.33;;;19.17;;
49826;SDS011;35715;51.570;6.036;2022-08-20T09:33:23;18.98;;;16.98;;
49826;SDS011;35715;51.570;6.036;2022-08-20T09:35:49;21.70;;;17.65;;
49826;SDS011;35715;51.570;6.036;2022-08-20T09:38:15;18.80;;;15.95;;
49826;SDS011;35715;51.570;6.036;2022-08-20T09:40:41;37.38;;;17.77;;
49826;SDS011;35715;51.570;6.036;2022-08-20T09:43:06;18.70;;;16.83;;
49826;SDS011;35715;51.570;6.036;2022-08-20T09:45:33;19.70;;;17.55;;
49826;SDS011;35715;51.570;6.036;2022-08-20T09:48:00;23.58;;;20.42;;
49826;SDS011;35715;51.570;6.036;2022-08-20T09:50:26;23.15;;;19.25;;
49826;SDS011;35715;51.570;6.036;2022-08-20T09:52:54;22.30;;;18.30;;
49826;SDS011;35715;51.570;6.036;2022-08-20T09:55:38;25.83;;;15.25;;
49826;SDS011;35715;51.570;6.036;2022-08-20T10:00:48;19.95;;;15.45;;
49826;SDS011;35715;51.570;6.036;2022-08-20T10:03:14;15.65;;;13.95;;
49826;SDS011;35715;51.570;6.036;2022-08-20T10:05:40;20.77;;;12.68;;
49826;SDS011;35715;51.570;6.036;2022-08-20T10:08:08;10.60;;;9.27;;
49826;SDS011;35715;51.570;6.036;2022-08-20T10:10:34;8.77;;;7.95;;
49826;SDS011;35715;51.570;6.036;2022-08-20T10:13:00;15.90;;;9.10;;
49826;SDS011;35715;51.570;6.036;2022-08-20T10:15:26;18.85;;;12.05;;
49826;SDS011;35715;51.570;6.036;2022-08-20T10:17:54;17.38;;;9.43;;
49826;SDS011;35715;51.570;6.036;2022-08-20T10:20:21;11.02;;;8.73;;
49826;SDS011;35715;51.570;6.036;2022-08-20T10:22:47;16.70;;;8.80;;
49826;SDS011;35715;51.570;6.036;2022-08-20T10:25:13;8.30;;;6.55;;
49826;SDS011;35715;51.570;6.036;2022-08-20T10:27:42;15.13;;;7.63;;
49826;SDS011;35715;51.570;6.036;2022-08-20T10:30:09;12.40;;;7.30;;
49826;SDS011;35715;51.570;6.036;2022-08-20T10:32:35;16.35;;;7.13;;
49826;SDS011;35715;51.570;6.036;2022-08-20T10:35:00;8.88;;;4.43;;
49826;SDS011;35715;51.570;6.036;2022-08-20T10:37:31;9.57;;;5.22;;
49826;SDS011;35715;51.570;6.036;2022-08-20T10:39:58;11.38;;;6.10;;
49826;SDS011;35715;51.570;6.036;2022-08-20T10:42:24;13.60;;;6.85;;
49826;SDS011;35715;51.570;6.036;2022-08-20T10:44:49;18.23;;;5.40;;
49826;SDS011;35715;51.570;6.036;2022-08-20T10:47:22;15.30;;;7.67;;
49826;SDS011;35715;51.570;6.036;2022-08-20T10:49:51;10.48;;;4.93;;
49826;SDS011;35715;51.570;6.036;2022-08-20T10:52:18;7.53;;;4.00;;
49826;SDS011;35715;51.570;6.036;2022-08-20T10:54:45;12.27;;;7.05;;
49826;SDS011;35715;51.570;6.036;2022-08-20T10:57:26;5.82;;;5.10;;
49826;SDS011;35715;51.570;6.036;2022-08-20T10:59:54;10.30;;;5.43;;
49826;SDS011;35715;51.570;6.036;2022-08-20T11:02:21;13.32;;;5.47;;
49826;SDS011;35715;51.570;6.036;2022-08-20T11:04:47;8.77;;;4.65;;
49826;SDS011;35715;51.570;6.036;2022-08-20T11:09:49;9.80;;;3.72;;
49826;SDS011;35715;51.570;6.036;2022-08-20T11:12:17;11.30;;;3.20;;
49826;SDS011;35715;51.570;6.036;2022-08-20T11:14:44;13.90;;;3.45;;
49826;SDS011;35715;51.570;6.036;2022-08-20T11:19:54;11.98;;;4.35;;
49826;SDS011;35715;51.570;6.036;2022-08-20T11:22:20;6.55;;;4.05;;
49826;SDS011;35715;51.570;6.036;2022-08-20T11:24:45;6.28;;;3.15;;
49826;SDS011;35715;51.570;6.036;2022-08-20T11:27:16;14.55;;;4.75;;
49826;SDS011;35715;51.570;6.036;2022-08-20T11:29:46;10.18;;;3.15;;
49826;SDS011;35715;51.570;6.036;2022-08-20T11:32:12;5.82;;;2.60;;
49826;SDS011;35715;51.570;6.036;2022-08-20T11:34:37;18.75;;;4.70;;
49826;SDS011;35715;51.570;6.036;2022-08-20T11:37:04;10.48;;;4.03;;
49826;SDS011;35715;51.570;6.036;2022-08-20T11:39:29;12.32;;;3.55;;
49826;SDS011;35715;51.570;6.036;2022-08-20T11:41:55;8.20;;;3.38;;
49826;SDS011;35715;51.570;6.036;2022-08-20T11:44:20;14.40;;;4.53;;
49826;SDS011;35715;51.570;6.036;2022-08-20T11:46:46;7.97;;;3.58;;
49826;SDS011;35715;51.570;6.036;2022-08-20T11:49:11;5.97;;;3.08;;
49826;SDS011;35715;51.570;6.036;2022-08-20T11:51:37;9.63;;;2.85;;
49826;SDS011;35715;51.570;6.036;2022-08-20T11:54:03;9.43;;;3.80;;
49826;SDS011;35715;51.570;6.036;2022-08-20T11:58:57;12.35;;;2.83;;
49826;SDS011;35715;51.570;6.036;2022-08-20T12:01:23;9.88;;;3.97;;
49826;SDS011;35715;51.570;6.036;2022-08-20T12:03:48;9.10;;;3.58;;
49826;SDS011;35715;51.570;6.036;2022-08-20T12:08:50;8.63;;;3.25;;
49826;SDS011;35715;51.570;6.036;2022-08-20T12:11:16;9.95;;;3.03;;
49826;SDS011;35715;51.570;6.036;2022-08-20T12:13:41;10.65;;;2.83;;
49826;SDS011;35715;51.570;6.036;2022-08-20T12:16:06;9.90;;;3.13;;
49826;SDS011;35715;51.570;6.036;2022-08-20T12:18:32;8.85;;;2.30;;
49826;SDS011;35715;51.570;6.036;2022-08-20T12:20:57;5.70;;;2.13;;
49826;SDS011;35715;51.570;6.036;2022-08-20T12:23:23;8.60;;;2.13;;
49826;SDS011;35715;51.570;6.036;2022-08-20T12:25:48;4.65;;;2.78;;
49826;SDS011;35715;51.570;6.036;2022-08-20T12:30:42;5.80;;;2.42;;
49826;SDS011;35715;51.570;6.036;2022-08-20T12:33:08;9.38;;;2.33;;
49826;SDS011;35715;51.570;6.036;2022-08-20T12:35:34;10.55;;;2.67;;
49826;SDS011;35715;51.570;6.036;2022-08-20T12:38:03;8.85;;;2.53;;
49826;SDS011;35715;51.570;6.036;2022-08-20T12:40:30;6.78;;;2.28;;
49826;SDS011;35715;51.570;6.036;2022-08-20T12:42:56;5.97;;;2.28;;
49826;SDS011;35715;51.570;6.036;2022-08-20T12:45:22;8.73;;;2.38;;
49826;SDS011;35715;51.570;6.036;2022-08-20T12:47:48;8.07;;;2.10;;
49826;SDS011;35715;51.570;6.036;2022-08-20T12:50:15;9.60;;;1.80;;
49826;SDS011;35715;51.570;6.036;2022-08-20T12:52:43;5.28;;;1.60;;
49826;SDS011;35715;51.570;6.036;2022-08-20T12:55:10;2.88;;;1.90;;
49826;SDS011;35715;51.570;6.036;2022-08-20T12:57:39;6.72;;;2.22;;
49826;SDS011;35715;51.570;6.036;2022-08-20T13:02:41;6.25;;;1.83;;
49826;SDS011;35715;51.570;6.036;2022-08-20T13:05:07;6.13;;;1.63;;
49826;SDS011;35715;51.570;6.036;2022-08-20T13:07:35;3.78;;;2.08;;
49826;SDS011;35715;51.570;6.036;2022-08-20T13:10:01;10.38;;;2.63;;
49826;SDS011;35715;51.570;6.036;2022-08-20T13:12:28;8.07;;;2.25;;
49826;SDS011;35715;51.570;6.036;2022-08-20T13:14:54;14.75;;;2.30;;
49826;SDS011;35715;51.570;6.036;2022-08-20T13:17:24;5.70;;;2.37;;
49826;SDS011;35715;51.570;6.036;2022-08-20T13:19:49;6.22;;;2.83;;
49826;SDS011;35715;51.570;6.036;2022-08-20T13:22:15;12.35;;;4.00;;
49826;SDS011;35715;51.570;6.036;2022-08-20T13:24:40;5.70;;;2.22;;
49826;SDS011;35715;51.570;6.036;2022-08-20T13:27:16;14.77;;;3.08;;
49826;SDS011;35715;51.570;6.036;2022-08-20T13:29:50;9.80;;;3.35;;
49826;SDS011;35715;51.570;6.036;2022-08-20T13:32:18;13.48;;;2.95;;
49826;SDS011;35715;51.570;6.036;2022-08-20T13:34:44;9.40;;;3.63;;
49826;SDS011;35715;51.570;6.036;2022-08-20T13:37:18;9.27;;;2.13;;
49826;SDS011;35715;51.570;6.036;2022-08-20T13:39:45;4.70;;;2.30;;
49826;SDS011;35715;51.570;6.036;2022-08-20T13:42:11;6.72;;;2.75;;
49826;SDS011;35715;51.570;6.036;2022-08-20T13:44:38;8.13;;;2.25;;
49826;SDS011;35715;51.570;6.036;2022-08-20T13:49:59;6.15;;;2.72;;
49826;SDS011;35715;51.570;6.036;2022-08-20T13:52:30;10.23;;;2.65;;
49826;SDS011;35715;51.570;6.036;2022-08-20T13:54:56;6.57;;;2.03;;
49826;SDS011;35715;51.570;6.036;2022-08-20T13:57:23;13.48;;;3.35;;
49826;SDS011;35715;51.570;6.036;2022-08-20T13:59:51;10.00;;;2.58;;
49826;SDS011;35715;51.570;6.036;2022-08-20T14:02:19;5.18;;;2.30;;
49826;SDS011;35715;51.570;6.036;2022-08-20T14:04:45;9.77;;;3.03;;
49826;SDS011;35715;51.570;6.036;2022-08-20T14:07:13;9.38;;;2.75;;
49826;SDS011;35715;51.570;6.036;2022-08-20T14:09:44;9.95;;;2.97;;
49826;SDS011;35715;51.570;6.036;2022-08-20T14:12:11;6.80;;;2.22;;
49826;SDS011;35715;51.570;6.036;2022-08-20T14:14:37;11.13;;;4.00;;
49826;SDS011;35715;51.570;6.036;2022-08-20T14:22:09;17.20;;;2.78;;
49826;SDS011;35715;51.570;6.036;2022-08-20T14:24:35;5.68;;;2.30;;
49826;SDS011;35715;51.570;6.036;2022-08-20T14:27:06;28.92;;;2.80;;
49826;SDS011;35715;51.570;6.036;2022-08-20T14:29:32;8.73;;;3.35;;
49826;SDS011;35715;51.570;6.036;2022-08-20T14:32:03;4.50;;;2.22;;
49826;SDS011;35715;51.570;6.036;2022-08-20T14:34:29;8.30;;;2.58;;
49826;SDS011;35715;51.570;6.036;2022-08-20T14:39:48;9.43;;;3.00;;
49826;SDS011;35715;51.570;6.036;2022-08-20T14:42:16;10.35;;;3.42;;
49826;SDS011;35715;51.570;6.036;2022-08-20T14:44:42;7.80;;;2.53;;
49826;SDS011;35715;51.570;6.036;2022-08-20T14:49:39;6.97;;;2.88;;
49826;SDS011;35715;51.570;6.036;2022-08-20T14:52:04;4.97;;;2.88;;
49826;SDS011;35715;51.570;6.036;2022-08-20T14:54:30;10.02;;;2.25;;
49826;SDS011;35715;51.570;6.036;2022-08-20T14:56:59;7.10;;;2.50;;
49826;SDS011;35715;51.570;6.036;2022-08-20T14:59:25;9.32;;;2.58;;
49826;SDS011;35715;51.570;6.036;2022-08-20T15:01:50;4.85;;;2.30;;
49826;SDS011;35715;51.570;6.036;2022-08-20T15:04:16;11.15;;;2.88;;
49826;SDS011;35715;51.570;6.036;2022-08-20T15:06:51;6.80;;;2.88;;
49826;SDS011;35715;51.570;6.036;2022-08-20T15:09:17;7.50;;;2.08;;
49826;SDS011;35715;51.570;6.036;2022-08-20T15:11:42;6.28;;;2.45;;
49826;SDS011;35715;51.570;6.036;2022-08-20T15:14:08;4.35;;;2.15;;
49826;SDS011;35715;51.570;6.036;2022-08-20T15:16:35;10.25;;;2.65;;
49826;SDS011;35715;51.570;6.036;2022-08-20T15:19:00;7.22;;;2.25;;
49826;SDS011;35715;51.570;6.036;2022-08-20T15:21:26;8.80;;;2.88;;
49826;SDS011;35715;51.570;6.036;2022-08-20T15:23:52;6.28;;;2.15;;
49826;SDS011;35715;51.570;6.036;2022-08-20T15:26:19;4.72;;;2.22;;
49826;SDS011;35715;51.570;6.036;2022-08-20T15:28:45;5.90;;;2.08;;
49826;SDS011;35715;51.570;6.036;2022-08-20T15:31:11;8.68;;;2.15;;
49826;SDS011;35715;51.570;6.036;2022-08-20T15:33:37;4.47;;;1.88;;
49826;SDS011;35715;51.570;6.036;2022-08-20T15:36:04;5.50;;;1.75;;
49826;SDS011;35715;51.570;6.036;2022-08-20T15:38:30;8.70;;;2.58;;
49826;SDS011;35715;51.570;6.036;2022-08-20T15:40:57;7.63;;;2.25;;
49826;SDS011;35715;51.570;6.036;2022-08-20T15:43:24;5.78;;;2.42;;
49826;SDS011;35715;51.570;6.036;2022-08-20T15:45:50;7.00;;;2.92;;